Mooresboro, North Carolina
Current Conditions -  °F | °C
As of 8:35 PM on Friday 19 Dec 2014 (Local Time) from KEHO Reporting Station
Clear Clear  
Wind Chill: 44°   Ceiling: Unl
Heat Index: 44°   Visibility: 10mi
Dew Point: 32°   Wind: 3mph
Humidity: 65%   Direction: 40°NE
Pressure: 30.15"   Gusts: NA
Location:  35.3°N, 81.7°W
Report Text: KEHO 200135Z AUTO 04003KT 10SM CLR 06/00 A3015 RMK AO2 T00640002
Loading
Personal Weather Stations






























Interactive Weather Map New forecast layout! Learn more

10-Day Weather Forecast

Advertisements
Track Severe Weather on mobile